Time,TemperatureF,DewpointF,PressureIn,WindDirection,WindDirectionDegrees,WindSpeedMPH,WindSpeedGustMPH,Humidity,HourlyPrecipIn,Conditions,Clouds,dailyrainin,SolarRadiationWatts/m^2,SoftwareType,DateUTC
2013-04-01 00:20:00,28.5,19.3,30.03,NNE,13,0.0,0.0,68,0.00,,,0.00,0,Wunderground v.1.15,2013-04-01 06:20:00,
2013-04-01 00:50:00,28.1,19.2,30.03,NNW,331,0.0,0.0,69,0.00,,,0.00,0,Wunderground v.1.15,2013-04-01 06:50:00,
2013-04-01 01:00:00,27.7,19.2,30.02,NNW,331,0.0,0.0,70,0.00,,,0.00,0,Wunderground v.1.15,2013-04-01 07:00:00,
2013-04-01 01:10:00,27.3,19.1,30.02,NNW,331,0.0,0.0,71,0.00,,,0.00,0,Wunderground v.1.15,2013-04-01 07:10:00,
2013-04-01 01:20:00,27.2,19.4,30.02,NNW,331,0.0,0.0,72,0.00,,,0.00,0,Wunderground v.1.15,2013-04-01 07:20:00,
2013-04-01 01:30:00,27.1,19.6,30.01,NNW,331,0.0,0.0,73,0.00,,,0.00,0,Wunderground v.1.15,2013-04-01 07:30:00,
2013-04-01 01:40:00,26.5,19.0,30.01,NNW,331,0.0,0.0,73,0.00,,,0.00,0,Wunderground v.1.15,2013-04-01 07:40:00,
2013-04-01 02:00:00,25.6,18.8,30.00,NNW,331,2.0,2.0,75,0.00,,,0.00,0,Wunderground v.1.15,2013-04-01 08:00:00,
2013-04-01 02:20:00,25.4,18.6,30.00,NNW,331,1.0,2.0,75,0.00,,,0.00,0,Wunderground v.1.15,2013-04-01 08:20:00,
2013-04-01 02:40:00,25.1,18.3,29.98,NNW,329,0.0,0.0,75,0.00,,,0.00,0,Wunderground v.1.15,2013-04-01 08:40:00,
2013-04-01 03:10:00,24.8,18.3,29.97,NNW,329,0.0,0.0,76,0.00,,,0.00,0,Wunderground v.1.15,2013-04-01 09:10:00,
2013-04-01 03:20:00,24.6,18.4,29.97,NNW,329,0.0,0.0,77,0.00,,,0.00,0,Wunderground v.1.15,2013-04-01 09:20:00,
2013-04-01 03:40:00,24.2,17.7,29.97,NNW,329,0.0,0.0,76,0.00,,,0.00,0,Wunderground v.1.15,2013-04-01 09:40:00,
2013-04-01 03:50:00,24.1,17.6,29.96,NNW,329,2.0,2.0,76,0.00,,,0.00,0,Wunderground v.1.15,2013-04-01 09:50:00,
2013-04-01 04:10:00,23.9,17.4,29.96,NNW,329,2.0,2.0,76,0.00,,,0.00,0,Wunderground v.1.15,2013-04-01 10:10:00,
2013-04-01 04:30:00,23.8,17.3,29.95,NNW,329,2.0,2.0,76,0.00,,,0.00,0,Wunderground v.1.15,2013-04-01 10:30:00,
2013-04-01 04:40:00,23.7,16.9,29.95,NNW,328,1.0,2.0,75,0.00,,,0.00,0,Wunderground v.1.15,2013-04-01 10:40:00,
2013-04-01 05:10:00,24.0,17.2,29.94,NW,307,3.0,4.0,75,0.00,,,0.00,0,Wunderground v.1.15,2013-04-01 11:10:00,
2013-04-01 05:30:00,24.3,16.6,29.94,NW,307,3.0,4.0,72,0.00,,,0.00,0,Wunderground v.1.15,2013-04-01 11:30:00,
2013-04-01 05:50:00,24.7,17.0,29.94,NW,306,4.0,4.0,72,0.00,,,0.00,0,Wunderground v.1.15,2013-04-01 11:50:00,
2013-04-01 06:10:00,24.4,16.7,29.94,NW,306,3.0,3.0,72,0.00,,,0.00,0,Wunderground v.1.15,2013-04-01 12:10:00,
2013-04-01 06:30:00,24.1,16.4,29.95,NNW,342,3.0,3.0,72,0.00,,,0.00,0,Wunderground v.1.15,2013-04-01 12:30:00,
2013-04-01 06:51:00,24.3,15.9,29.95,NW,319,1.0,3.0,70,0.00,,,0.00,5,Wunderground v.1.15,2013-04-01 12:51:00,
2013-04-01 07:00:00,24.8,16.4,29.95,NW,318,2.0,4.0,70,0.00,,,0.00,11,Wunderground v.1.15,2013-04-01 13:00:00,
2013-04-01 07:20:00,26.7,17.9,29.96,NW,318,0.0,0.0,69,0.00,,,0.00,37,Wunderground v.1.15,2013-04-01 13:20:00,
2013-04-01 07:40:00,30.4,18.5,29.96,NW,318,0.0,0.0,61,0.00,,,0.00,105,Wunderground v.1.15,2013-04-01 13:40:00,
2013-04-01 07:50:00,32.3,20.3,29.96,NW,318,0.0,0.0,61,0.00,,,0.00,149,Wunderground v.1.15,2013-04-01 13:50:00,
2013-04-01 08:00:00,34.5,21.2,29.97,NW,318,0.0,0.0,58,0.00,,,0.00,192,Wunderground v.1.15,2013-04-01 14:00:00,
2013-04-01 08:20:00,39.7,20.1,29.97,NNE,12,3.0,4.0,45,0.00,,,0.00,288,Wunderground v.1.15,2013-04-01 14:20:00,
2013-04-01 08:30:00,40.3,21.6,29.97,East,94,3.0,5.0,47,0.00,,,0.00,327,Wunderground v.1.15,2013-04-01 14:30:00,
2013-04-01 08:50:00,38.8,21.3,29.96,NE,39,2.0,2.0,49,0.00,,,0.00,396,Wunderground v.1.15,2013-04-01 14:50:00,
2013-04-01 09:10:00,42.2,22.4,29.96,NE,51,1.0,1.0,45,0.00,,,0.00,473,Wunderground v.1.15,2013-04-01 15:10:00,
2013-04-01 09:30:00,44.9,23.2,29.95,NE,51,3.0,3.0,42,0.00,,,0.00,534,Wunderground v.1.15,2013-04-01 15:30:00,
2013-04-01 09:50:00,44.5,22.8,29.95,ENE,75,3.0,3.0,42,0.00,,,0.00,621,Wunderground v.1.15,2013-04-01 15:50:00,
2013-04-01 10:10:00,44.7,24.6,29.95,SE,142,5.0,7.0,45,0.00,,,0.00,694,Wunderground v.1.15,2013-04-01 16:10:00,
2013-04-01 10:20:00,43.7,25.8,29.94,ESE,106,10.0,10.0,49,0.00,,,0.00,756,Wunderground v.1.15,2013-04-01 16:20:00,
2013-04-01 10:30:00,44.5,27.5,29.94,East,89,12.0,14.0,51,0.00,,,0.00,696,Wunderground v.1.15,2013-04-01 16:30:00,
2013-04-01 10:40:00,43.1,26.2,29.95,ESE,109,11.0,11.0,51,0.00,,,0.00,294,Wunderground v.1.15,2013-04-01 16:40:00,
2013-04-01 10:51:00,41.3,25.4,29.95,East,96,9.0,10.0,53,0.00,,,0.00,279,Wunderground v.1.15,2013-04-01 16:51:00,
2013-04-01 11:00:00,42.6,26.2,29.95,East,82,8.0,17.0,52,0.00,,,0.00,884,Wunderground v.1.15,2013-04-01 17:00:00,
2013-04-01 11:11:00,44.2,26.7,29.95,East,95,12.0,13.0,50,0.00,,,0.00,752,Wunderground v.1.15,2013-04-01 17:11:00,
2013-04-01 11:20:00,45.0,26.0,29.95,ESE,108,11.0,13.0,47,0.00,,,0.00,816,Wunderground v.1.15,2013-04-01 17:20:00,
2013-04-01 11:40:00,45.0,23.8,29.94,East,89,10.0,15.0,43,0.00,,,0.00,265,Wunderground v.1.15,2013-04-01 17:40:00,
2013-04-01 12:10:00,45.0,25.4,29.94,ENE,76,9.0,9.0,46,0.00,,,0.00,341,Wunderground v.1.15,2013-04-01 18:10:00,
2013-04-01 12:20:00,44.8,24.7,29.94,East,81,10.0,10.0,45,0.00,,,0.00,311,Wunderground v.1.15,2013-04-01 18:20:00,
2013-04-01 12:30:00,44.7,23.5,29.94,East,98,10.0,10.0,43,0.00,,,0.00,271,Wunderground v.1.15,2013-04-01 18:30:00,
2013-04-01 12:40:00,44.8,23.6,29.94,ESE,104,7.0,7.0,43,0.00,,,0.00,327,Wunderground v.1.15,2013-04-01 18:40:00,
2013-04-01 13:00:00,44.8,22.5,29.94,ENE,74,6.0,6.0,41,0.00,,,0.00,206,Wunderground v.1.15,2013-04-01 19:00:00,
2013-04-01 13:20:00,43.9,22.8,29.95,ESE,112,7.0,7.0,43,0.00,,,0.00,276,Wunderground v.1.15,2013-04-01 19:20:00,
2013-04-01 13:40:00,45.0,23.8,29.95,East,81,2.0,2.0,43,0.00,,,0.00,434,Wunderground v.1.15,2013-04-01 19:40:00,
2013-04-01 14:00:00,44.8,24.7,29.94,SSW,200,6.0,6.0,45,0.00,,,0.00,383,Wunderground v.1.15,2013-04-01 20:00:00,
2013-04-01 14:20:00,45.9,25.7,29.94,WNW,303,5.0,5.0,45,0.00,,,0.00,779,Wunderground v.1.15,2013-04-01 20:20:00,
2013-04-01 14:40:00,47.0,27.3,29.93,North,349,2.0,5.0,46,0.00,,,0.00,336,Wunderground v.1.15,2013-04-01 20:40:00,
2013-04-01 15:10:00,46.5,26.8,29.92,East,94,4.0,7.0,46,0.00,,,0.00,770,Wunderground v.1.15,2013-04-01 21:10:00,
2013-04-01 15:30:00,46.9,26.1,29.91,SSE,153,3.0,3.0,44,0.00,,,0.00,545,Wunderground v.1.15,2013-04-01 21:30:00,
2013-04-01 15:40:00,47.9,27.0,29.91,NE,46,1.0,4.0,44,0.00,,,0.00,232,Wunderground v.1.15,2013-04-01 21:40:00,
2013-04-01 15:51:00,47.7,27.4,29.90,NE,53,2.0,3.0,45,0.00,,,0.00,218,Wunderground v.1.15,2013-04-01 21:51:00,
2013-04-01 16:00:00,46.5,27.3,29.90,ENE,64,6.0,7.0,47,0.00,,,0.00,104,Wunderground v.1.15,2013-04-01 22:00:00,
2013-04-01 16:20:00,40.7,30.2,29.92,WNW,303,11.0,12.0,66,0.00,,,0.00,74,Wunderground v.1.15,2013-04-01 22:20:00,
2013-04-01 16:30:00,39.7,30.0,29.92,NW,309,8.0,8.0,68,0.00,,,0.00,54,Wunderground v.1.15,2013-04-01 22:30:00,
2013-04-01 16:50:00,40.0,29.2,29.93,NNE,22,6.0,6.0,65,0.00,,,0.00,51,Wunderground v.1.15,2013-04-01 22:50:00,
2013-04-01 17:10:00,39.1,30.1,29.92,West,274,7.0,8.0,70,0.00,,,0.00,40,Wunderground v.1.15,2013-04-01 23:10:00,
2013-04-01 17:30:00,39.1,29.4,29.93,WNW,285,4.0,4.0,68,0.00,,,0.00,28,Wunderground v.1.15,2013-04-01 23:30:00,
2013-04-01 17:50:00,37.6,31.0,29.94,SE,138,3.0,3.0,77,0.00,,,0.00,11,Wunderground v.1.15,2013-04-01 23:50:00,
2013-04-01 18:00:00,36.9,31.0,29.95,WSW,255,2.0,4.0,79,0.00,,,0.00,12,Wunderground v.1.15,2013-04-02 00:00:00,
2013-04-01 18:10:00,36.1,31.1,29.94,WNW,294,4.0,5.0,82,0.00,,,0.00,12,Wunderground v.1.15,2013-04-02 00:10:00,
2013-04-01 18:30:00,35.3,30.9,29.95,WNW,284,4.0,4.0,84,0.00,,,0.01,9,Wunderground v.1.15,2013-04-02 00:30:00,
2013-04-01 19:00:00,34.2,30.7,29.97,WNW,284,0.0,0.0,87,0.00,,,0.03,5,Wunderground v.1.15,2013-04-02 01:00:00,
2013-04-01 19:21:00,34.0,31.1,29.97,WNW,284,1.0,1.0,89,0.04,,,0.04,0,Wunderground v.1.15,2013-04-02 01:21:00,
2013-04-01 19:30:00,33.9,31.0,29.98,WNW,284,0.0,0.0,89,0.00,,,0.04,0,Wunderground v.1.15,2013-04-02 01:30:00,
2013-04-01 19:51:00,33.5,30.6,29.99,WNW,284,0.0,0.0,89,0.00,,,0.05,0,Wunderground v.1.15,2013-04-02 01:51:00,
2013-04-01 20:00:00,33.4,30.8,29.99,WNW,284,0.0,0.0,90,0.00,,,0.05,0,Wunderground v.1.15,2013-04-02 02:00:00,
2013-04-01 20:20:00,33.5,30.9,30.00,WNW,284,1.0,2.0,90,0.00,,,0.05,0,Wunderground v.1.15,2013-04-02 02:20:00,
2013-04-01 20:30:00,33.4,30.8,30.00,West,273,1.0,2.0,90,0.00,,,0.05,0,Wunderground v.1.15,2013-04-02 02:30:00,
2013-04-01 20:50:00,33.3,30.4,30.01,WSW,255,2.0,3.0,89,0.00,,,0.06,0,Wunderground v.1.15,2013-04-02 02:50:00,
2013-04-01 21:10:00,33.3,30.4,30.01,West,259,3.0,3.0,89,0.00,,,0.06,0,Wunderground v.1.15,2013-04-02 03:10:00,
2013-04-01 21:30:00,33.2,30.3,30.01,SSE,165,1.0,2.0,89,0.00,,,0.06,0,Wunderground v.1.15,2013-04-02 03:30:00,
2013-04-01 21:40:00,32.9,30.3,30.01,SSE,165,0.0,0.0,90,0.00,,,0.06,0,Wunderground v.1.15,2013-04-02 03:40:00,
2013-04-01 22:00:00,33.0,30.7,30.01,East,80,1.0,5.0,91,0.00,,,0.06,0,Wunderground v.1.15,2013-04-02 04:00:00,
2013-04-01 22:10:00,32.5,30.2,30.02,ENE,75,2.0,2.0,91,0.00,,,0.06,0,Wunderground v.1.15,2013-04-02 04:10:00,
2013-04-01 22:20:00,32.7,30.4,30.02,ENE,75,0.0,0.0,91,0.00,,,0.06,0,Wunderground v.1.15,2013-04-02 04:20:00,
2013-04-01 22:30:00,32.6,30.3,30.02,ENE,75,0.0,0.0,91,0.00,,,0.06,0,Wunderground v.1.15,2013-04-02 04:30:00,
2013-04-01 22:41:00,32.5,30.2,30.01,North,5,2.0,3.0,91,0.00,,,0.06,0,Wunderground v.1.15,2013-04-02 04:41:00,
2013-04-01 22:50:00,32.4,30.1,30.01,North,5,4.0,4.0,91,0.00,,,0.06,0,Wunderground v.1.15,2013-04-02 04:50:00,
2013-04-01 23:00:00,32.3,30.0,30.01,NNE,16,4.0,4.0,91,0.00,,,0.06,0,Wunderground v.1.15,2013-04-02 05:00:00,
2013-04-01 23:30:00,31.9,29.8,30.00,NNE,28,2.0,2.0,92,0.00,,,0.06,0,Wunderground v.1.15,2013-04-02 05:30:00,
2013-04-01 23:40:00,31.6,29.3,30.00,NE,34,1.0,2.0,91,0.00,,,0.06,0,Wunderground v.1.15,2013-04-02 05:40:00,
2013-04-01 23:50:00,31.1,28.8,30.00,East,94,3.0,3.0,91,0.00,,,0.06,0,Wunderground v.1.15,2013-04-02 05:50:00,